createdAt,value
2017-05-16T00:00:06.982Z,94.07
2017-05-16T00:01:07.005Z,94.56
2017-05-16T00:02:07.034Z,94.65
2017-05-16T00:03:07.051Z,94.56
2017-05-16T00:04:07.075Z,94.46
2017-05-16T00:05:07.098Z,94.46
2017-05-16T00:06:06.816Z,94.17
2017-05-16T00:09:07.190Z,94.07
2017-05-16T00:10:07.225Z,94.36
2017-05-16T00:11:07.237Z,93.31
2017-05-16T00:12:07.260Z,93.12
2017-05-16T00:13:07.284Z,92.46
2017-05-16T00:14:07.307Z,92.69
2017-05-16T00:15:07.329Z,93.6
2017-05-16T00:16:07.350Z,94.27
2017-05-16T00:17:07.374Z,94.46
2017-05-16T00:18:07.398Z,95.17
2017-05-16T00:19:07.118Z,95.37
2017-05-16T00:20:07.444Z,95.65
2017-05-16T00:21:07.465Z,96.41
2017-05-16T00:22:07.186Z,96.13
2017-05-16T00:23:07.513Z,96.41
2017-05-16T00:24:07.544Z,96.32
2017-05-16T00:26:07.582Z,95.46
2017-05-16T00:27:07.609Z,95.51
2017-05-16T00:28:07.630Z,95.79
2017-05-16T00:29:22.268Z,95.94
2017-05-16T00:30:07.675Z,96.22
2017-05-16T00:31:07.698Z,96.32
2017-05-16T00:32:07.720Z,96.7
2017-05-16T00:33:07.742Z,96.32
2017-05-16T00:34:07.765Z,96.8
2017-05-16T00:35:07.790Z,96.41
2017-05-16T00:36:07.811Z,96.03
2017-05-16T00:37:07.837Z,95.75
2017-05-16T00:38:07.858Z,95.84
2017-05-16T00:39:07.880Z,96.8
2017-05-16T00:42:07.646Z,96.98
2017-05-16T00:43:07.972Z,97.56
2017-05-16T00:44:07.996Z,98.27
2017-05-16T00:45:22.635Z,97.85
2017-05-16T00:46:08.045Z,98.75
2017-05-16T00:47:08.063Z,98.9
2017-05-16T00:48:08.087Z,98.75
2017-05-16T00:49:08.109Z,98.75
2017-05-16T00:50:08.133Z,99.04
2017-05-16T00:51:08.154Z,99.41
2017-05-16T00:52:08.177Z,99.22
2017-05-16T00:53:08.207Z,99.04
2017-05-16T00:54:07.919Z,99.6
2017-05-16T00:55:08.247Z,99.89
2017-05-16T00:56:08.269Z,99.99
2017-05-16T00:57:08.293Z,99.99
2017-05-16T00:59:08.337Z,99.99
2017-05-16T01:00:08.359Z,99.99
2017-05-16T01:01:23.008Z,99.99
2017-05-16T01:02:08.106Z,99.89
2017-05-16T01:03:08.428Z,99.99
2017-05-16T01:04:08.452Z,99.99
2017-05-16T01:05:08.472Z,99.99
2017-05-16T01:06:08.495Z,99.99
2017-05-16T01:07:08.517Z,99.99
2017-05-16T01:08:08.540Z,99.99
2017-05-16T01:09:08.564Z,99.99
2017-05-16T01:10:08.585Z,99.99
2017-05-16T01:11:08.608Z,99.99
2017-05-16T01:12:08.629Z,99.99
2017-05-16T01:14:08.677Z,99.99
2017-05-16T01:15:08.700Z,99.99
2017-05-16T01:16:08.720Z,99.99
2017-05-16T01:17:23.361Z,99.6
2017-05-16T01:18:08.766Z,99.04
2017-05-16T01:19:08.789Z,98.36
2017-05-16T01:20:08.811Z,98.36
2017-05-16T01:21:08.834Z,98.94
2017-05-16T01:22:08.856Z,99.22
2017-05-16T01:23:08.879Z,99.32
2017-05-16T01:24:08.901Z,99.41
2017-05-16T01:25:08.926Z,99.13
2017-05-16T01:26:08.945Z,98.94
2017-05-16T01:27:08.968Z,99.04
2017-05-16T01:29:09.014Z,98.94
2017-05-16T01:30:08.734Z,99.51
2017-05-16T01:31:09.060Z,99.99
2017-05-16T01:32:23.699Z,99.89
2017-05-16T01:33:09.106Z,99.8
2017-05-16T01:34:09.127Z,99.89
2017-05-16T01:35:09.151Z,98.94
2017-05-16T01:36:09.174Z,98.36
2017-05-16T01:37:09.197Z,98.75
2017-05-16T01:38:09.217Z,99.04
2017-05-16T01:39:09.248Z,99.6
2017-05-16T01:40:09.262Z,99.99
2017-05-16T01:41:09.285Z,99.99
2017-05-16T01:42:09.308Z,99.99
2017-05-16T01:43:09.330Z,99.99
2017-05-16T01:46:09.397Z,99.99
2017-05-16T01:47:09.423Z,99.99
2017-05-16T01:48:09.443Z,99.99
2017-05-16T01:49:09.511Z,99.99
2017-05-16T01:50:09.487Z,99.99
2017-05-16T01:51:09.509Z,99.99
2017-05-16T01:52:09.531Z,99.99
2017-05-16T01:53:09.553Z,99.99
2017-05-16T01:54:09.575Z,99.99
2017-05-16T01:55:09.600Z,99.99
2017-05-16T01:56:09.622Z,99.99
2017-05-16T01:57:09.643Z,99.99
2017-05-16T01:58:09.665Z,99.99
2017-05-16T02:01:09.733Z,99.99
2017-05-16T02:02:09.756Z,99.99
2017-05-16T02:03:09.777Z,99.99
2017-05-16T02:04:24.417Z,99.99
2017-05-16T02:05:09.824Z,99.99
2017-05-16T02:06:09.844Z,99.04
2017-05-16T02:07:09.562Z,99.32
2017-05-16T02:08:09.889Z,99.6
2017-05-16T02:09:09.914Z,99.8
2017-05-16T02:10:09.934Z,99.99
2017-05-16T02:11:09.652Z,99.99
2017-05-16T02:12:09.979Z,99.99
2017-05-16T02:13:10.001Z,99.99
2017-05-16T02:14:09.923Z,99.99
2017-05-16T02:15:10.044Z,99.99
2017-05-16T02:17:10.090Z,99.99
2017-05-16T02:18:10.111Z,99.99
2017-05-16T02:19:09.830Z,99.99
2017-05-16T02:20:24.773Z,99.99
2017-05-16T02:21:09.878Z,99.99
2017-05-16T02:22:09.897Z,99.99
2017-05-16T02:23:10.224Z,99.99
2017-05-16T02:24:10.247Z,99.99
2017-05-16T02:25:09.964Z,99.99
2017-05-16T02:26:10.289Z,99.99
2017-05-16T02:27:10.313Z,99.99
2017-05-16T02:28:10.338Z,99.99
2017-05-16T02:29:10.056Z,99.99
2017-05-16T02:30:10.076Z,99.99
2017-05-16T02:31:10.404Z,99.99
2017-05-16T02:32:10.121Z,99.99
2017-05-16T02:33:10.447Z,99.99
2017-05-16T02:34:10.166Z,99.99
2017-05-16T02:35:10.493Z,99.99
2017-05-16T02:36:25.128Z,99.99
2017-05-16T02:37:10.536Z,99.99
2017-05-16T02:38:10.560Z,99.99
2017-05-16T02:39:10.580Z,99.99
2017-05-16T02:40:10.600Z,99.99
2017-05-16T02:41:10.320Z,99.99
2017-05-16T02:42:10.646Z,99.99
2017-05-16T02:43:10.716Z,99.99
2017-05-16T02:44:10.689Z,99.99
2017-05-16T02:45:10.407Z,99.99
2017-05-16T02:46:10.735Z,99.99
2017-05-16T02:49:10.803Z,99.99
2017-05-16T02:50:10.824Z,99.99
2017-05-16T02:51:10.541Z,99.99
2017-05-16T02:52:25.483Z,99.99
2017-05-16T02:53:10.892Z,99.99
2017-05-16T02:54:10.912Z,99.99
2017-05-16T02:55:10.982Z,99.99
2017-05-16T02:56:10.653Z,99.99
2017-05-16T02:57:10.978Z,99.99
2017-05-16T02:58:10.999Z,99.99
2017-05-16T02:59:11.024Z,99.99
2017-05-16T03:00:11.044Z,99.99
2017-05-16T03:01:11.073Z,99.99
2017-05-16T03:02:11.089Z,99.99
2017-05-16T03:03:11.110Z,99.99
2017-05-16T03:04:11.132Z,99.99
2017-05-16T03:05:11.156Z,99.99
2017-05-16T03:06:10.874Z,99.99
2017-05-16T03:07:25.816Z,99.99
2017-05-16T03:08:11.222Z,99.99
2017-05-16T03:09:11.247Z,99.99
2017-05-16T03:10:11.267Z,99.99
2017-05-16T03:11:11.289Z,99.99
2017-05-16T03:12:11.311Z,99.99
2017-05-16T03:13:11.333Z,99.99
2017-05-16T03:14:11.354Z,99.99
2017-05-16T03:15:11.377Z,99.99
2017-05-16T03:16:11.398Z,99.99
2017-05-16T03:17:11.420Z,99.99
2017-05-16T03:18:11.445Z,99.99
2017-05-16T03:19:11.466Z,99.99
2017-05-16T03:21:11.511Z,99.99
2017-05-16T03:22:11.228Z,99.99
2017-05-16T03:23:11.556Z,99.99
2017-05-16T03:24:11.273Z,99.99
2017-05-16T03:25:11.597Z,99.99
2017-05-16T03:26:11.620Z,99.99
2017-05-16T03:27:11.651Z,99.99
2017-05-16T03:28:11.664Z,99.99
2017-05-16T03:29:11.688Z,99.99
2017-05-16T03:30:11.713Z,99.99
2017-05-16T03:31:11.788Z,99.99
2017-05-16T03:32:11.753Z,99.99
2017-05-16T03:33:11.781Z,99.99
2017-05-16T03:35:11.817Z,99.99
2017-05-16T03:36:11.840Z,99.99
2017-05-16T03:37:11.862Z,99.99
2017-05-16T03:38:11.884Z,99.99
2017-05-16T03:39:26.522Z,99.99
2017-05-16T03:40:11.928Z,99.99
2017-05-16T03:41:11.951Z,99.99
2017-05-16T03:42:11.973Z,99.99
2017-05-16T03:43:11.995Z,99.99
2017-05-16T03:44:12.018Z,99.99
2017-05-16T03:45:12.041Z,99.99
2017-05-16T03:46:12.061Z,99.99
2017-05-16T03:47:12.083Z,99.99
2017-05-16T03:48:12.107Z,99.99
2017-05-16T03:49:12.129Z,99.99
2017-05-16T03:50:12.151Z,99.99
2017-05-16T03:52:12.197Z,99.99
2017-05-16T03:54:12.239Z,99.99
2017-05-16T03:55:26.878Z,99.99
2017-05-16T03:56:11.983Z,99.99
2017-05-16T03:57:12.306Z,99.99
2017-05-16T03:58:12.329Z,99.99
2017-05-16T03:59:12.351Z,99.99
2017-05-16T04:00:12.373Z,99.99
2017-05-16T04:01:12.395Z,99.99
2017-05-16T04:02:12.418Z,99.99
2017-05-16T04:03:12.443Z,99.99
2017-05-16T04:04:12.463Z,99.99
2017-05-16T04:05:12.486Z,99.99
2017-05-16T04:06:12.508Z,99.99
2017-05-16T04:07:12.537Z,99.95
2017-05-16T04:08:12.555Z,99.85
2017-05-16T04:09:12.575Z,99.99
2017-05-16T04:10:12.602Z,99.99
2017-05-16T04:11:27.237Z,99.66
2017-05-16T04:12:12.642Z,99.18
2017-05-16T04:13:12.667Z,99.08
2017-05-16T04:14:12.386Z,99.99
2017-05-16T04:15:12.714Z,99.99
2017-05-16T04:16:12.737Z,99.75
2017-05-16T04:17:12.755Z,99.99
2017-05-16T04:18:12.782Z,99.99
2017-05-16T04:19:12.801Z,99.99
2017-05-16T04:20:12.824Z,99.99
2017-05-16T04:21:12.846Z,99.99
2017-05-16T04:22:12.869Z,99.99
2017-05-16T04:23:12.893Z,99.75
2017-05-16T04:25:12.638Z,99.71
2017-05-16T04:26:12.960Z,99.23
2017-05-16T04:27:27.599Z,99.23
2017-05-16T04:28:13.007Z,99.04
2017-05-16T04:29:13.028Z,98.94
2017-05-16T04:30:13.050Z,99.04
2017-05-16T04:31:13.078Z,98.85
2017-05-16T04:32:13.096Z,98.47
2017-05-16T04:33:13.118Z,98.08
2017-05-16T04:34:13.141Z,98.18
2017-05-16T04:35:13.165Z,97.51
2017-05-16T04:36:13.187Z,97.51
2017-05-16T04:37:13.209Z,97.32
2017-05-16T04:38:13.231Z,96.94
2017-05-16T04:39:13.255Z,97.42
2017-05-16T04:41:13.304Z,97.8
2017-05-16T04:42:27.942Z,98.18
2017-05-16T04:43:13.349Z,98.18
2017-05-16T04:44:13.371Z,98.08
2017-05-16T04:45:13.394Z,98.18
2017-05-16T04:46:13.417Z,98.18
2017-05-16T04:47:13.439Z,97.61
2017-05-16T04:48:13.463Z,97.61
2017-05-16T04:49:13.485Z,97.71
2017-05-16T04:50:13.508Z,97.61
2017-05-16T04:51:13.533Z,97.03
2017-05-16T04:52:13.555Z,97.37
2017-05-16T04:53:13.580Z,95.75
2017-05-16T04:54:13.600Z,95.7
2017-05-16T04:55:13.626Z,93.98
2017-05-16T04:56:13.648Z,90.63
2017-05-16T04:57:13.671Z,86.7
2017-05-16T04:58:13.695Z,83.05
2017-05-16T04:59:13.720Z,79.93
2017-05-16T05:00:13.746Z,77.51
2017-05-16T05:01:13.770Z,72.99
2017-05-16T05:02:13.793Z,70.72
2017-05-16T05:03:13.879Z,69.12
2017-05-16T05:04:13.847Z,67.68
2017-05-16T05:05:13.874Z,66.74
2017-05-16T05:06:13.896Z,66.36
2017-05-16T05:07:13.922Z,64.59
2017-05-16T05:08:13.949Z,62.03
2017-05-16T05:09:13.996Z,61.51
2017-05-16T05:12:14.058Z,56.03
2017-05-16T05:13:14.085Z,55.09
2017-05-16T05:14:28.731Z,54.29
2017-05-16T05:15:14.142Z,54.9
2017-05-16T05:16:14.170Z,54.32
2017-05-16T05:17:14.201Z,54.29
2017-05-16T05:18:13.925Z,53.93
2017-05-16T05:19:14.255Z,53.83
2017-05-16T05:20:14.292Z,53.09
2017-05-16T05:21:14.315Z,52.31
2017-05-16T05:22:14.345Z,51.86
2017-05-16T05:23:14.378Z,50.89
2017-05-16T05:25:14.437Z,50.62
2017-05-16T05:26:14.468Z,50.92
2017-05-16T05:27:14.500Z,50.52
2017-05-16T05:28:14.227Z,50.72
2017-05-16T05:29:14.562Z,50.21
2017-05-16T05:30:29.213Z,49.37
2017-05-16T05:31:14.625Z,48.06
2017-05-16T05:32:14.358Z,47.6
2017-05-16T05:33:14.387Z,46.65
2017-05-16T05:34:14.721Z,45.82
2017-05-16T05:35:14.752Z,43.49
2017-05-16T05:36:14.481Z,42.76
2017-05-16T05:37:14.817Z,43.44
2017-05-16T05:38:14.854Z,43.78
2017-05-16T05:39:14.883Z,45.43
2017-05-16T05:40:14.917Z,47.02
2017-05-16T05:41:14.947Z,48.97
2017-05-16T05:43:15.013Z,50.67
2017-05-16T05:44:15.046Z,51.73
2017-05-16T05:45:15.075Z,52.61
2017-05-16T05:46:29.725Z,54.1
2017-05-16T05:47:15.184Z,55.3
2017-05-16T05:48:15.169Z,55.2
2017-05-16T05:49:14.899Z,54.94
2017-05-16T05:50:15.231Z,55.16
2017-05-16T05:51:14.958Z,53.91
2017-05-16T05:52:15.294Z,51.15
2017-05-16T05:53:15.326Z,51.66
2017-05-16T05:54:15.355Z,50.43
2017-05-16T05:55:15.392Z,50.45
2017-05-16T05:56:15.113Z,50.09
2017-05-16T05:57:15.446Z,50.07
2017-05-16T05:59:15.517Z,51.95
2017-05-16T06:00:15.542Z,52.77
2017-05-16T06:01:15.267Z,54.49
2017-05-16T06:02:30.221Z,56.58
2017-05-16T06:03:15.634Z,56.87
2017-05-16T06:04:15.666Z,56.29
2017-05-16T06:05:15.696Z,56.39
2017-05-16T06:06:15.724Z,56.48
2017-05-16T06:07:15.753Z,56.84
2017-05-16T06:08:15.782Z,57.68
2017-05-16T06:09:15.509Z,59.13
2017-05-16T06:10:15.538Z,58.94
2017-05-16T06:11:15.569Z,59.23
2017-05-16T06:12:15.901Z,59.97
2017-05-16T06:13:15.929Z,59.97
2017-05-16T06:14:15.959Z,60.06
2017-05-16T06:15:15.683Z,59.1
2017-05-16T06:16:16.016Z,59.39
2017-05-16T06:17:30.664Z,59.13
2017-05-16T06:18:15.772Z,59
2017-05-16T06:19:16.103Z,60.74
2017-05-16T06:20:15.828Z,60.16
2017-05-16T06:21:16.161Z,61.13
2017-05-16T06:22:16.189Z,60.06
2017-05-16T06:23:16.217Z,59.32
2017-05-16T06:24:15.943Z,58.26
2017-05-16T06:25:16.274Z,57.14
2017-05-16T06:26:16.302Z,57.71
2017-05-16T06:27:16.028Z,56.68
2017-05-16T06:28:16.362Z,55.13
2017-05-16T06:31:16.145Z,55.35
2017-05-16T06:32:16.475Z,55.93
2017-05-16T06:33:16.506Z,55.55
2017-05-16T06:34:16.532Z,54.77
2017-05-16T06:35:16.564Z,55.45
2017-05-16T06:36:16.601Z,55.65
2017-05-16T06:37:16.620Z,55.35
2017-05-16T06:38:16.345Z,55.33
2017-05-16T06:39:16.680Z,55.42
2017-05-16T06:40:16.711Z,55.55
2017-05-16T06:41:16.736Z,54.87
2017-05-16T06:42:16.764Z,55.29
2017-05-16T06:43:16.794Z,53.93
2017-05-16T06:46:16.577Z,54.44
2017-05-16T06:47:16.911Z,54.75
2017-05-16T06:48:16.942Z,52.99
2017-05-16T06:49:31.588Z,53.16
2017-05-16T06:50:17.000Z,53.42
2017-05-16T06:51:17.029Z,55.65
2017-05-16T06:52:17.056Z,56.32
2017-05-16T06:53:17.091Z,55.74
2017-05-16T06:54:17.117Z,55.57
2017-05-16T06:55:16.840Z,54.03
2017-05-16T06:56:17.177Z,53.45
2017-05-16T06:57:17.204Z,53.93
2017-05-16T06:58:17.231Z,55.67
2017-05-16T06:59:17.260Z,54.32
2017-05-16T07:00:17.290Z,54.58
2017-05-16T07:01:17.319Z,53.61
2017-05-16T07:04:17.406Z,54.49
2017-05-16T07:05:32.050Z,54.77
2017-05-16T07:06:17.462Z,54.8
2017-05-16T07:07:17.490Z,54.41
2017-05-16T07:08:17.519Z,54.13
2017-05-16T07:09:17.548Z,53.16
2017-05-16T07:10:17.579Z,53.83
2017-05-16T07:11:17.606Z,54.71
2017-05-16T07:12:17.330Z,54.41
2017-05-16T07:13:17.667Z,53.83
2017-05-16T07:14:17.690Z,52.67
2017-05-16T07:15:17.418Z,53.2
2017-05-16T07:16:17.747Z,53.88
2017-05-16T07:18:17.804Z,54.75
2017-05-16T07:19:17.850Z,53.81
2017-05-16T07:20:17.866Z,53.61
2017-05-16T07:21:32.508Z,53.42
2017-05-16T07:22:17.918Z,53.33
2017-05-16T07:23:17.947Z,52.45
2017-05-16T07:24:17.975Z,52.65
2017-05-16T07:25:18.002Z,52.45
2017-05-16T07:26:17.730Z,52.17
2017-05-16T07:27:18.062Z,51.49
2017-05-16T07:28:18.088Z,51.01
2017-05-16T07:29:18.117Z,51.97
2017-05-16T07:30:18.147Z,51.9
2017-05-16T07:31:18.178Z,50.16
2017-05-16T07:32:18.202Z,49.77
2017-05-16T07:33:18.234Z,48.44
2017-05-16T07:35:18.335Z,49.68
2017-05-16T07:36:18.315Z,49.97
2017-05-16T07:37:32.964Z,49.29
2017-05-16T07:38:18.375Z,49
2017-05-16T07:39:18.402Z,48.25
2017-05-16T07:40:18.431Z,47.96
2017-05-16T07:41:18.459Z,47.58
2017-05-16T07:42:18.487Z,47.84
2017-05-16T07:43:18.521Z,48.06
2017-05-16T07:44:18.547Z,47.09
2017-05-16T07:45:18.575Z,47.79
2017-05-16T07:46:18.605Z,47.31
2017-05-16T07:47:18.633Z,44.72
2017-05-16T07:49:18.693Z,44.35
2017-05-16T07:50:18.721Z,42.8
2017-05-16T07:51:18.753Z,43.29
2017-05-16T07:52:33.398Z,43.58
2017-05-16T07:53:18.815Z,43.31
2017-05-16T07:54:18.839Z,41.39
2017-05-16T07:55:18.869Z,41.51
2017-05-16T07:56:18.899Z,40.44
2017-05-16T07:57:18.932Z,41.05
2017-05-16T07:58:18.959Z,41.14
2017-05-16T08:00:19.020Z,39.7
2017-05-16T08:01:19.050Z,39.11
2017-05-16T08:02:19.085Z,40.26
2017-05-16T08:04:19.150Z,40.95
2017-05-16T08:06:19.204Z,39.9
2017-05-16T08:07:19.236Z,42.03
2017-05-16T08:08:19.268Z,41.63
2017-05-16T08:09:19.298Z,40.26
2017-05-16T08:10:19.328Z,42.11
2017-05-16T08:11:19.359Z,40.56
2017-05-16T08:12:19.390Z,41.92
2017-05-16T08:13:19.422Z,40.95
2017-05-16T08:14:19.466Z,41.24
2017-05-16T08:15:19.482Z,40.29
2017-05-16T08:16:19.515Z,38.93
2017-05-16T08:17:19.545Z,39.62
2017-05-16T08:18:19.580Z,39.72
2017-05-16T08:19:19.606Z,42.25
2017-05-16T08:21:19.669Z,38.75
2017-05-16T08:22:19.702Z,39.04
2017-05-16T08:23:19.732Z,40.77
2017-05-16T08:24:34.378Z,42.11
2017-05-16T08:25:19.791Z,43.54
2017-05-16T08:26:19.823Z,41.72
2017-05-16T08:27:19.853Z,42.6
2017-05-16T08:28:19.580Z,42.29
2017-05-16T08:29:19.915Z,42.77
2017-05-16T08:30:19.645Z,42.46
2017-05-16T08:31:19.976Z,42.46
2017-05-16T08:32:19.704Z,42.55
2017-05-16T08:33:20.039Z,43.21
2017-05-16T08:34:20.071Z,45.44
2017-05-16T08:35:20.098Z,45.64
2017-05-16T08:37:20.159Z,43.47
2017-05-16T08:39:20.223Z,44.23
2017-05-16T08:40:34.869Z,43.76
2017-05-16T08:41:20.282Z,43.18
2017-05-16T08:42:20.313Z,43.47
2017-05-16T08:43:20.342Z,44.15
2017-05-16T08:44:20.372Z,44.73
2017-05-16T08:45:20.402Z,42.23
2017-05-16T08:46:20.434Z,42.21
2017-05-16T08:47:20.464Z,42.02
2017-05-16T08:48:20.496Z,42.21
2017-05-16T08:49:20.526Z,42.3
2017-05-16T08:51:20.587Z,41.36
2017-05-16T08:53:20.345Z,43.88
2017-05-16T08:54:20.681Z,42.91
2017-05-16T08:55:20.712Z,41.26
2017-05-16T08:56:35.357Z,43.37
2017-05-16T08:57:20.770Z,42.61
2017-05-16T08:58:20.804Z,42.3
2017-05-16T08:59:20.832Z,43.35
2017-05-16T09:00:20.863Z,42.96
2017-05-16T09:01:20.894Z,43.43
2017-05-16T09:02:20.923Z,43.72
2017-05-16T09:03:20.954Z,43.52
2017-05-16T09:04:20.984Z,43.33
2017-05-16T09:05:21.016Z,45.65
2017-05-16T09:06:21.046Z,45.29
2017-05-16T09:07:21.077Z,43.33
2017-05-16T09:09:21.138Z,43.26
2017-05-16T09:10:21.196Z,45.37
2017-05-16T09:11:21.198Z,42.19
2017-05-16T09:12:35.845Z,43.16
2017-05-16T09:13:21.263Z,42.57
2017-05-16T09:14:21.290Z,42.55
2017-05-16T09:15:21.316Z,43.13
2017-05-16T09:16:21.350Z,45.07
2017-05-16T09:17:21.379Z,42.67
2017-05-16T09:18:21.408Z,43.62
2017-05-16T09:19:21.439Z,43.31
2017-05-16T09:20:21.470Z,43.68
2017-05-16T09:21:21.498Z,43.77
2017-05-16T09:22:21.528Z,43.38
2017-05-16T09:23:21.558Z,43.31
2017-05-16T09:24:21.588Z,43.31
2017-05-16T09:25:21.619Z,43.31
2017-05-16T09:26:21.655Z,43.77
2017-05-16T09:27:36.298Z,44.16
2017-05-16T09:28:21.713Z,45.34
2017-05-16T09:29:21.743Z,45.61
2017-05-16T09:30:21.769Z,45.25
2017-05-16T09:31:21.800Z,48.03
2017-05-16T09:32:21.829Z,47.19
2017-05-16T09:33:21.859Z,46.99
2017-05-16T09:34:21.889Z,46.7
2017-05-16T09:35:21.920Z,45.83
2017-05-16T09:36:21.952Z,45.65
2017-05-16T09:37:21.980Z,44.68
2017-05-16T09:38:22.009Z,45.22
2017-05-16T09:41:22.099Z,44.72
2017-05-16T09:42:22.136Z,47.31
2017-05-16T09:43:22.159Z,47.79
2017-05-16T09:44:22.195Z,48.54
2017-05-16T09:45:22.219Z,47.26
2017-05-16T09:46:22.247Z,48.11
2017-05-16T09:47:22.276Z,48.39
2017-05-16T09:48:22.305Z,49.68
2017-05-16T09:49:22.338Z,47.84
2017-05-16T09:50:22.366Z,48.71
2017-05-16T09:51:22.394Z,49.22
2017-05-16T09:52:22.424Z,49.24
2017-05-16T09:53:22.452Z,50.7
2017-05-16T09:54:22.486Z,50.12
2017-05-16T09:56:22.543Z,44.64
2017-05-16T09:57:22.573Z,43.96
2017-05-16T09:58:22.603Z,45.59
2017-05-16T09:59:37.246Z,46.92
2017-05-16T10:00:22.659Z,46.92
2017-05-16T10:01:22.687Z,46.83
2017-05-16T10:02:22.715Z,46.92
2017-05-16T10:03:22.744Z,47.21
2017-05-16T10:04:22.777Z,47.58
2017-05-16T10:05:22.804Z,47.6
2017-05-16T10:06:22.831Z,47.38
2017-05-16T10:07:22.862Z,47.86
2017-05-16T10:08:22.896Z,47.67
2017-05-16T10:09:22.920Z,48.76
2017-05-16T10:10:22.950Z,47.89
2017-05-16T10:12:23.010Z,47.69
2017-05-16T10:13:23.051Z,47.77
2017-05-16T10:14:23.083Z,47.77
2017-05-16T10:15:37.713Z,48.71
2017-05-16T10:16:23.128Z,49.32
2017-05-16T10:17:23.153Z,51.22
2017-05-16T10:18:23.194Z,51.29
2017-05-16T10:19:23.211Z,52.91
2017-05-16T10:20:23.239Z,53.19
2017-05-16T10:21:22.966Z,55.02
2017-05-16T10:22:23.298Z,55.24
2017-05-16T10:23:23.331Z,53.44
2017-05-16T10:24:23.355Z,52.47
2017-05-16T10:25:23.383Z,52.64
2017-05-16T10:26:23.412Z,52.91
2017-05-16T10:28:23.473Z,54.66
2017-05-16T10:29:23.196Z,54.5
2017-05-16T10:30:23.526Z,54.24
2017-05-16T10:31:38.173Z,53.85
2017-05-16T10:32:23.598Z,53.56
2017-05-16T10:33:23.610Z,52.69
2017-05-16T10:34:23.640Z,53.27
2017-05-16T10:36:23.703Z,53.56
2017-05-16T10:37:23.726Z,52.33
2017-05-16T10:38:23.756Z,54.55
2017-05-16T10:39:23.782Z,53.2
2017-05-16T10:40:23.811Z,51.49
2017-05-16T10:41:23.840Z,52.72
2017-05-16T10:44:23.926Z,53.01
2017-05-16T10:45:23.959Z,53.01
2017-05-16T10:46:23.982Z,53.52
2017-05-16T10:47:38.628Z,53.81
2017-05-16T10:48:24.039Z,50.84
2017-05-16T10:49:24.069Z,51.29
2017-05-16T10:50:24.094Z,51.87
2017-05-16T10:51:23.820Z,51.87
2017-05-16T10:52:24.152Z,53.52
2017-05-16T10:53:23.876Z,52.17
2017-05-16T10:54:23.905Z,51.39
2017-05-16T10:55:24.238Z,51.78
2017-05-16T10:56:24.265Z,51.97
2017-05-16T10:57:24.294Z,53.78
2017-05-16T10:58:24.324Z,52.14
2017-05-16T10:59:24.351Z,52.94
2017-05-16T11:00:24.381Z,53.59
2017-05-16T11:01:24.409Z,53.2
2017-05-16T11:02:39.056Z,53.66
2017-05-16T11:03:24.466Z,53.53
2017-05-16T11:04:24.495Z,53.73
2017-05-16T11:05:24.522Z,54.69
2017-05-16T11:06:24.550Z,54.02
2017-05-16T11:07:24.582Z,54.69
2017-05-16T11:08:24.608Z,53.85
2017-05-16T11:09:24.635Z,54.07
2017-05-16T11:10:24.665Z,54.33
2017-05-16T11:11:24.692Z,54.62
2017-05-16T11:12:24.724Z,55.36
2017-05-16T11:13:24.750Z,56.3
2017-05-16T11:14:24.784Z,57.82
2017-05-16T11:16:24.833Z,57.82
2017-05-16T11:17:24.869Z,57.14
2017-05-16T11:18:24.892Z,58.01
2017-05-16T11:19:24.919Z,59.3
2017-05-16T11:20:24.947Z,57.85
2017-05-16T11:21:24.976Z,56.52
2017-05-16T11:22:25.006Z,56.04
2017-05-16T11:23:25.030Z,55.68
2017-05-16T11:24:25.061Z,56.84
2017-05-16T11:25:25.089Z,55.78
2017-05-16T11:26:25.120Z,54.46
2017-05-16T11:27:25.144Z,54.82
2017-05-16T11:28:25.176Z,55.01
2017-05-16T11:29:25.203Z,55.98
2017-05-16T11:31:25.262Z,54.36
2017-05-16T11:32:25.285Z,53.69
2017-05-16T11:33:25.312Z,54.24
2017-05-16T11:34:39.959Z,55.76
2017-05-16T11:35:25.369Z,54.69
2017-05-16T11:36:25.400Z,55.08
2017-05-16T11:37:25.123Z,55.08
2017-05-16T11:38:25.157Z,55.88
2017-05-16T11:39:25.482Z,53.69
2017-05-16T11:40:25.510Z,54.55
2017-05-16T11:41:25.540Z,54.62
2017-05-16T11:42:25.567Z,54.14
2017-05-16T11:44:25.622Z,52.84
2017-05-16T11:45:25.661Z,52.81
2017-05-16T11:46:25.680Z,53.59
2017-05-16T11:48:25.432Z,52.81
2017-05-16T11:49:25.769Z,52.91
2017-05-16T11:50:40.412Z,52.07
2017-05-16T11:51:25.823Z,52.89
2017-05-16T11:52:25.849Z,53.37
2017-05-16T11:53:25.935Z,54.33
2017-05-16T11:54:25.906Z,56.65
2017-05-16T11:55:25.937Z,54.75
2017-05-16T11:56:25.965Z,53.59
2017-05-16T11:57:25.993Z,53.59
2017-05-16T11:59:26.050Z,57.01
2017-05-16T12:00:26.078Z,56.62
2017-05-16T12:01:26.105Z,57.29
2017-05-16T12:02:26.132Z,57.27
2017-05-16T12:03:26.161Z,57.94
2017-05-16T12:04:26.190Z,59.68
2017-05-16T12:05:26.218Z,58.33
2017-05-16T12:06:40.863Z,59.07
2017-05-16T12:07:26.274Z,59.84
2017-05-16T12:08:26.303Z,60.06
2017-05-16T12:09:26.028Z,58.33
2017-05-16T12:10:26.053Z,57.29
2017-05-16T12:11:26.386Z,56.91
2017-05-16T12:12:26.111Z,56.46
2017-05-16T12:13:26.443Z,55.13
2017-05-16T12:14:26.468Z,55.23
2017-05-16T12:15:26.498Z,54.29
2017-05-16T12:16:26.526Z,53.74
2017-05-16T12:17:26.554Z,53.06
2017-05-16T12:18:26.583Z,54.99
2017-05-16T12:19:26.612Z,53.93
2017-05-16T12:20:26.638Z,53.67
2017-05-16T12:21:26.666Z,54.35
2017-05-16T12:22:41.313Z,53.19
2017-05-16T12:23:26.723Z,52.97
2017-05-16T12:24:26.757Z,53.55
2017-05-16T12:25:26.779Z,53.93
2017-05-16T12:26:26.816Z,53.64
2017-05-16T12:27:26.840Z,53.16
2017-05-16T12:28:26.560Z,52.61
2017-05-16T12:29:26.897Z,52.12
2017-05-16T12:30:26.920Z,52.58
2017-05-16T12:31:26.950Z,52.26
2017-05-16T12:32:26.978Z,52.45
2017-05-16T12:33:27.009Z,54.65
2017-05-16T12:34:27.034Z,54.1
2017-05-16T12:35:27.064Z,53.23
2017-05-16T12:36:27.091Z,52.55
2017-05-16T12:37:41.737Z,53.61
2017-05-16T12:38:27.150Z,54.36
2017-05-16T12:39:27.177Z,54.27
2017-05-16T12:40:27.205Z,53.59
2017-05-16T12:41:27.240Z,54.27
2017-05-16T12:42:27.262Z,55.13
2017-05-16T12:43:27.290Z,56.56
2017-05-16T12:44:27.367Z,55.98
2017-05-16T12:45:27.346Z,55.2
2017-05-16T12:46:27.376Z,56.16
2017-05-16T12:47:27.400Z,56.46
2017-05-16T12:48:27.138Z,56.74
2017-05-16T12:50:27.488Z,58.07
2017-05-16T12:51:27.513Z,60.26
2017-05-16T12:52:27.541Z,62.28
2017-05-16T12:53:27.569Z,61.03
2017-05-16T12:54:27.598Z,61.9
2017-05-16T12:55:27.624Z,62.93
2017-05-16T12:56:27.652Z,63.6
2017-05-16T12:57:27.680Z,64.28
2017-05-16T12:58:27.707Z,66.97
2017-05-16T12:59:27.733Z,65.33
2017-05-16T13:00:27.761Z,66.3
2017-05-16T13:01:27.789Z,66.39
2017-05-16T13:02:27.816Z,66.07
2017-05-16T13:03:27.845Z,67.52
2017-05-16T13:04:27.872Z,67.81
2017-05-16T13:05:27.897Z,68.68
2017-05-16T13:06:27.926Z,67.81
2017-05-16T13:07:27.959Z,69.54
2017-05-16T13:08:27.676Z,66.65
2017-05-16T13:09:42.626Z,67.68
2017-05-16T13:10:28.035Z,68.87
2017-05-16T13:11:28.062Z,68.96
2017-05-16T13:12:28.093Z,70.98
2017-05-16T13:13:28.122Z,71.76
2017-05-16T13:14:28.144Z,70.89
2017-05-16T13:15:28.174Z,70.64
2017-05-16T13:16:28.199Z,70.12
2017-05-16T13:17:28.226Z,70.7
2017-05-16T13:18:28.254Z,70.7
2017-05-16T13:19:28.280Z,71.08
2017-05-16T13:20:28.306Z,71.28
2017-05-16T13:21:28.334Z,70.7
2017-05-16T13:22:28.371Z,72.33
2017-05-16T13:23:28.390Z,71.95
2017-05-16T13:24:28.125Z,71.47
2017-05-16T13:25:43.061Z,69.06
2017-05-16T13:26:28.471Z,70.37
2017-05-16T13:27:28.498Z,69.41
2017-05-16T13:28:28.527Z,71.14
2017-05-16T13:29:28.552Z,72.11
2017-05-16T13:30:28.579Z,70.21
2017-05-16T13:31:28.607Z,68.29
2017-05-16T13:32:28.634Z,68.58
2017-05-16T13:33:28.663Z,69.93
2017-05-16T13:34:28.687Z,69.12
2017-05-16T13:35:28.717Z,67.71
2017-05-16T13:36:28.744Z,68.87
2017-05-16T13:39:28.824Z,68.29
2017-05-16T13:40:28.854Z,67.81
2017-05-16T13:41:43.496Z,68.38
2017-05-16T13:42:28.910Z,67.61
2017-05-16T13:43:28.933Z,68.77
2017-05-16T13:44:28.960Z,68
2017-05-16T13:45:28.987Z,69.15
2017-05-16T13:46:29.016Z,69.15
2017-05-16T13:47:29.042Z,67.23
2017-05-16T13:48:29.069Z,68.68
2017-05-16T13:49:29.096Z,68.87
2017-05-16T13:50:29.125Z,68.13
2017-05-16T13:51:29.151Z,68.04
2017-05-16T13:52:29.177Z,68.9
2017-05-16T13:53:29.209Z,68.13
2017-05-16T13:54:29.234Z,68.19